sensor_id;sensor_type;location;lat;lon;timestamp;pressure;altitude;pressure_sealevel;temperature;humidity
34177;BME280;20450;49.074;9.158;2022-12-29T00:00:45;99296.25;;;10.25;65.24
34177;BME280;20450;49.074;9.158;2022-12-29T00:03:12;99288.16;;;10.25;65.33
34177;BME280;20450;49.074;9.158;2022-12-29T00:05:40;99282.09;;;10.29;65.32
34177;BME280;20450;49.074;9.158;2022-12-29T00:08:07;99281.28;;;10.29;65.13
34177;BME280;20450;49.074;9.158;2022-12-29T00:10:33;99277.63;;;10.41;64.33
34177;BME280;20450;49.074;9.158;2022-12-29T00:13:01;99270.78;;;10.39;65.33
34177;BME280;20450;49.074;9.158;2022-12-29T00:15:29;99269.97;;;10.38;65.43
34177;BME280;20450;49.074;9.158;2022-12-29T00:17:55;99276.41;;;10.37;64.81
34177;BME280;20450;49.074;9.158;2022-12-29T00:20:22;99276.19;;;10.39;65.27
34177;BME280;20450;49.074;9.158;2022-12-29T00:22:49;99271.41;;;10.41;64.78
34177;BME280;20450;49.074;9.158;2022-12-29T00:25:16;99264.13;;;10.41;65.32
34177;BME280;20450;49.074;9.158;2022-12-29T00:27:43;99262.47;;;10.40;65.02
34177;BME280;20450;49.074;9.158;2022-12-29T00:30:14;99263.69;;;10.44;64.93
34177;BME280;20450;49.074;9.158;2022-12-29T00:32:42;99267.31;;;10.56;64.07
34177;BME280;20450;49.074;9.158;2022-12-29T00:35:11;99279.13;;;10.55;64.31
34177;BME280;20450;49.074;9.158;2022-12-29T00:37:46;99265.06;;;10.53;64.88
34177;BME280;20450;49.074;9.158;2022-12-29T00:40:14;99272.25;;;10.59;64.54
34177;BME280;20450;49.074;9.158;2022-12-29T00:42:41;99263.53;;;10.57;65.02
34177;BME280;20450;49.074;9.158;2022-12-29T00:45:08;99264.81;;;10.55;64.38
34177;BME280;20450;49.074;9.158;2022-12-29T00:47:37;99273.16;;;10.53;65.04
34177;BME280;20450;49.074;9.158;2022-12-29T00:50:04;99261.34;;;10.48;65.52
34177;BME280;20450;49.074;9.158;2022-12-29T00:52:31;99262.84;;;10.44;65.67
34177;BME280;20450;49.074;9.158;2022-12-29T00:54:58;99271.41;;;10.41;65.99
34177;BME280;20450;49.074;9.158;2022-12-29T00:57:25;99266.22;;;10.39;66.11
34177;BME280;20450;49.074;9.158;2022-12-29T00:59:52;99266.84;;;10.41;65.87
34177;BME280;20450;49.074;9.158;2022-12-29T01:02:19;99279.72;;;10.39;65.95
34177;BME280;20450;49.074;9.158;2022-12-29T01:04:48;99283.69;;;10.37;66.30
34177;BME280;20450;49.074;9.158;2022-12-29T01:07:15;99284.13;;;10.34;66.78
34177;BME280;20450;49.074;9.158;2022-12-29T01:09:44;99296.34;;;10.36;65.92
34177;BME280;20450;49.074;9.158;2022-12-29T01:12:11;99293.66;;;10.36;66.46
34177;BME280;20450;49.074;9.158;2022-12-29T01:14:40;99302.81;;;10.35;67.14
34177;BME280;20450;49.074;9.158;2022-12-29T01:17:07;99303.84;;;10.34;66.43
34177;BME280;20450;49.074;9.158;2022-12-29T01:19:34;99307.91;;;10.43;66.58
34177;BME280;20450;49.074;9.158;2022-12-29T01:22:02;99305.59;;;10.47;65.78
34177;BME280;20450;49.074;9.158;2022-12-29T01:24:29;99305.22;;;10.43;66.62
34177;BME280;20450;49.074;9.158;2022-12-29T01:26:56;99306.28;;;10.42;66.60
34177;BME280;20450;49.074;9.158;2022-12-29T01:29:23;99302.06;;;10.46;67.09
34177;BME280;20450;49.074;9.158;2022-12-29T01:31:50;99306.00;;;10.50;67.60
34177;BME280;20450;49.074;9.158;2022-12-29T01:34:17;99303.75;;;10.47;67.79
34177;BME280;20450;49.074;9.158;2022-12-29T01:36:44;99306.59;;;10.52;67.12
34177;BME280;20450;49.074;9.158;2022-12-29T01:39:13;99309.28;;;10.52;67.89
34177;BME280;20450;49.074;9.158;2022-12-29T01:41:41;99315.13;;;10.49;67.42
34177;BME280;20450;49.074;9.158;2022-12-29T01:44:47;99311.69;;;10.42;69.39
34177;BME280;20450;49.074;9.158;2022-12-29T01:47:22;99306.19;;;10.31;69.48
34177;BME280;20450;49.074;9.158;2022-12-29T01:49:58;99313.75;;;10.22;71.04
34177;BME280;20450;49.074;9.158;2022-12-29T01:52:32;99309.00;;;10.18;71.21
34177;BME280;20450;49.074;9.158;2022-12-29T01:55:04;99299.09;;;10.12;71.80
34177;BME280;20450;49.074;9.158;2022-12-29T01:57:38;99295.19;;;10.01;71.64
34177;BME280;20450;49.074;9.158;2022-12-29T02:00:12;99285.94;;;9.90;72.65
34177;BME280;20450;49.074;9.158;2022-12-29T02:02:42;99292.78;;;9.86;71.95
34177;BME280;20450;49.074;9.158;2022-12-29T02:05:18;99290.94;;;9.87;72.25
34177;BME280;20450;49.074;9.158;2022-12-29T02:07:51;99289.78;;;10.01;71.34
34177;BME280;20450;49.074;9.158;2022-12-29T02:10:23;99281.84;;;10.06;71.00
34177;BME280;20450;49.074;9.158;2022-12-29T02:12:52;99274.81;;;10.05;71.68
34177;BME280;20450;49.074;9.158;2022-12-29T02:15:34;99272.34;;;10.03;71.03
34177;BME280;20450;49.074;9.158;2022-12-29T02:18:18;99269.00;;;10.08;70.60
34177;BME280;20450;49.074;9.158;2022-12-29T02:27:36;99266.41;;;10.20;70.25
34177;BME280;20450;49.074;9.158;2022-12-29T02:30:39;99263.13;;;10.18;70.01
34177;BME280;20450;49.074;9.158;2022-12-29T02:33:19;99261.41;;;10.23;69.76
34177;BME280;20450;49.074;9.158;2022-12-29T02:36:02;99263.00;;;10.31;68.98
34177;BME280;20450;49.074;9.158;2022-12-29T02:38:48;99255.13;;;10.29;69.75
34177;BME280;20450;49.074;9.158;2022-12-29T02:41:25;99254.34;;;10.22;69.60
34177;BME280;20450;49.074;9.158;2022-12-29T02:44:03;99251.66;;;10.22;69.34
34177;BME280;20450;49.074;9.158;2022-12-29T02:46:45;99254.50;;;10.27;69.55
34177;BME280;20450;49.074;9.158;2022-12-29T02:49:20;99249.09;;;10.27;70.80
34177;BME280;20450;49.074;9.158;2022-12-29T02:51:59;99247.94;;;10.17;70.65
34177;BME280;20450;49.074;9.158;2022-12-29T02:54:29;99247.28;;;10.21;70.21
34177;BME280;20450;49.074;9.158;2022-12-29T02:56:57;99247.91;;;10.23;70.46
34177;BME280;20450;49.074;9.158;2022-12-29T02:59:25;99252.84;;;10.26;70.09
34177;BME280;20450;49.074;9.158;2022-12-29T03:02:14;99251.34;;;10.30;70.35
34177;BME280;20450;49.074;9.158;2022-12-29T03:05:17;99247.59;;;10.31;69.92
34177;BME280;20450;49.074;9.158;2022-12-29T03:08:04;99248.81;;;10.35;70.21
34177;BME280;20450;49.074;9.158;2022-12-29T03:10:45;99249.84;;;10.34;70.27
34177;BME280;20450;49.074;9.158;2022-12-29T03:13:25;99238.47;;;10.32;70.73
34177;BME280;20450;49.074;9.158;2022-12-29T03:16:04;99249.97;;;10.21;70.25
34177;BME280;20450;49.074;9.158;2022-12-29T03:18:50;99229.44;;;10.20;69.13
34177;BME280;20450;49.074;9.158;2022-12-29T03:21:28;99231.94;;;10.22;70.51
34177;BME280;20450;49.074;9.158;2022-12-29T03:24:04;99216.84;;;10.14;69.89
34177;BME280;20450;49.074;9.158;2022-12-29T03:26:32;99226.34;;;10.17;69.78
34177;BME280;20450;49.074;9.158;2022-12-29T03:28:59;99229.91;;;10.17;69.43
34177;BME280;20450;49.074;9.158;2022-12-29T03:31:28;99220.28;;;10.21;69.65
34177;BME280;20450;49.074;9.158;2022-12-29T03:33:58;99212.41;;;10.20;69.93
34177;BME280;20450;49.074;9.158;2022-12-29T03:36:29;99219.03;;;10.24;69.59
34177;BME280;20450;49.074;9.158;2022-12-29T03:39:09;99214.53;;;10.18;70.19
34177;BME280;20450;49.074;9.158;2022-12-29T03:41:40;99219.63;;;10.26;69.83
34177;BME280;20450;49.074;9.158;2022-12-29T03:44:11;99217.16;;;10.24;70.44
34177;BME280;20450;49.074;9.158;2022-12-29T03:46:40;99215.19;;;10.31;68.89
34177;BME280;20450;49.074;9.158;2022-12-29T03:49:08;99215.81;;;10.33;69.35
34177;BME280;20450;49.074;9.158;2022-12-29T03:51:35;99218.97;;;10.48;68.51
34177;BME280;20450;49.074;9.158;2022-12-29T03:54:04;99206.00;;;10.57;68.10
34177;BME280;20450;49.074;9.158;2022-12-29T03:56:32;99213.59;;;10.66;67.59
34177;BME280;20450;49.074;9.158;2022-12-29T03:59:00;99214.88;;;10.64;68.25
34177;BME280;20450;49.074;9.158;2022-12-29T04:01:31;99211.09;;;10.65;67.89
34177;BME280;20450;49.074;9.158;2022-12-29T04:03:58;99221.91;;;10.65;68.51
34177;BME280;20450;49.074;9.158;2022-12-29T04:06:26;99217.34;;;10.65;68.77
34177;BME280;20450;49.074;9.158;2022-12-29T04:09:00;99213.50;;;10.55;68.30
34177;BME280;20450;49.074;9.158;2022-12-29T04:11:29;99213.84;;;10.40;69.18
34177;BME280;20450;49.074;9.158;2022-12-29T04:14:02;99213.50;;;10.37;68.81
34177;BME280;20450;49.074;9.158;2022-12-29T04:16:31;99208.56;;;10.34;69.34
34177;BME280;20450;49.074;9.158;2022-12-29T04:18:58;99209.75;;;10.38;68.89
34177;BME280;20450;49.074;9.158;2022-12-29T04:21:26;99204.28;;;10.44;68.31
34177;BME280;20450;49.074;9.158;2022-12-29T04:23:53;99201.03;;;10.54;68.68
34177;BME280;20450;49.074;9.158;2022-12-29T04:26:21;99197.22;;;10.61;68.40
34177;BME280;20450;49.074;9.158;2022-12-29T04:29:09;99186.88;;;10.58;68.56
34177;BME280;20450;49.074;9.158;2022-12-29T04:31:52;99184.31;;;10.63;68.28
34177;BME280;20450;49.074;9.158;2022-12-29T04:34:19;99169.53;;;10.66;67.83
34177;BME280;20450;49.074;9.158;2022-12-29T04:36:49;99168.94;;;10.64;67.16
34177;BME280;20450;49.074;9.158;2022-12-29T04:39:17;99169.75;;;10.64;67.83
34177;BME280;20450;49.074;9.158;2022-12-29T04:41:44;99169.63;;;10.59;68.39
34177;BME280;20450;49.074;9.158;2022-12-29T04:44:15;99171.34;;;10.54;68.25
34177;BME280;20450;49.074;9.158;2022-12-29T04:46:46;99177.19;;;10.51;68.26
34177;BME280;20450;49.074;9.158;2022-12-29T04:49:36;99181.34;;;10.53;68.68
34177;BME280;20450;49.074;9.158;2022-12-29T04:52:16;99180.50;;;10.53;68.74
34177;BME280;20450;49.074;9.158;2022-12-29T04:54:44;99178.19;;;10.56;68.54
34177;BME280;20450;49.074;9.158;2022-12-29T04:57:16;99174.41;;;10.57;68.33
34177;BME280;20450;49.074;9.158;2022-12-29T04:59:49;99170.44;;;10.60;67.84
34177;BME280;20450;49.074;9.158;2022-12-29T05:02:17;99168.94;;;10.64;68.14
34177;BME280;20450;49.074;9.158;2022-12-29T05:04:46;99177.84;;;10.64;68.18
34177;BME280;20450;49.074;9.158;2022-12-29T05:07:14;99173.06;;;10.66;67.67
34177;BME280;20450;49.074;9.158;2022-12-29T05:09:44;99175.31;;;10.69;67.28
34177;BME280;20450;49.074;9.158;2022-12-29T05:12:11;99170.19;;;10.79;67.73
34177;BME280;20450;49.074;9.158;2022-12-29T05:14:46;99170.47;;;10.89;66.22
34177;BME280;20450;49.074;9.158;2022-12-29T05:17:14;99176.25;;;10.93;66.66
34177;BME280;20450;49.074;9.158;2022-12-29T05:19:40;99181.88;;;10.91;66.85
34177;BME280;20450;49.074;9.158;2022-12-29T05:22:08;99182.94;;;10.90;66.63
34177;BME280;20450;49.074;9.158;2022-12-29T05:24:36;99180.19;;;11.08;66.55
34177;BME280;20450;49.074;9.158;2022-12-29T05:27:05;99172.47;;;11.23;65.63
34177;BME280;20450;49.074;9.158;2022-12-29T05:29:53;99174.09;;;11.54;64.92
34177;BME280;20450;49.074;9.158;2022-12-29T05:32:20;99160.53;;;11.83;64.62
34177;BME280;20450;49.074;9.158;2022-12-29T05:34:47;99163.59;;;11.87;64.81
34177;BME280;20450;49.074;9.158;2022-12-29T05:37:16;99179.72;;;12.05;63.74
34177;BME280;20450;49.074;9.158;2022-12-29T05:39:44;99164.75;;;12.14;63.46
34177;BME280;20450;49.074;9.158;2022-12-29T05:42:12;99179.59;;;12.12;63.63
34177;BME280;20450;49.074;9.158;2022-12-29T05:45:12;99185.69;;;12.19;63.21
34177;BME280;20450;49.074;9.158;2022-12-29T05:47:54;99185.34;;;12.15;63.72
34177;BME280;20450;49.074;9.158;2022-12-29T05:50:39;99170.75;;;12.16;63.34
34177;BME280;20450;49.074;9.158;2022-12-29T05:53:13;99175.47;;;12.21;62.92
34177;BME280;20450;49.074;9.158;2022-12-29T05:55:42;99166.63;;;12.25;63.16
34177;BME280;20450;49.074;9.158;2022-12-29T05:58:17;99166.75;;;12.30;62.70
34177;BME280;20450;49.074;9.158;2022-12-29T06:00:44;99162.03;;;12.37;62.42
34177;BME280;20450;49.074;9.158;2022-12-29T06:03:13;99166.03;;;12.35;62.88
34177;BME280;20450;49.074;9.158;2022-12-29T06:05:40;99171.22;;;12.25;63.51
34177;BME280;20450;49.074;9.158;2022-12-29T06:08:08;99169.56;;;12.24;62.89
34177;BME280;20450;49.074;9.158;2022-12-29T06:10:34;99171.56;;;12.28;63.40
34177;BME280;20450;49.074;9.158;2022-12-29T06:13:04;99169.56;;;12.35;63.14
34177;BME280;20450;49.074;9.158;2022-12-29T06:15:35;99170.38;;;12.36;62.67
34177;BME280;20450;49.074;9.158;2022-12-29T06:18:06;99179.81;;;12.33;63.20
34177;BME280;20450;49.074;9.158;2022-12-29T06:20:34;99169.22;;;12.32;63.57
34177;BME280;20450;49.074;9.158;2022-12-29T06:23:03;99173.31;;;12.46;62.29
34177;BME280;20450;49.074;9.158;2022-12-29T06:25:30;99176.25;;;12.44;62.67
34177;BME280;20450;49.074;9.158;2022-12-29T06:27:57;99163.66;;;12.50;62.28
34177;BME280;20450;49.074;9.158;2022-12-29T06:30:24;99157.16;;;12.51;62.42
34177;BME280;20450;49.074;9.158;2022-12-29T06:32:53;99154.34;;;12.57;62.20
34177;BME280;20450;49.074;9.158;2022-12-29T06:35:20;99158.44;;;12.60;62.10
34177;BME280;20450;49.074;9.158;2022-12-29T06:37:51;99159.41;;;12.54;62.60
34177;BME280;20450;49.074;9.158;2022-12-29T06:40:19;99161.16;;;12.60;61.95
34177;BME280;20450;49.074;9.158;2022-12-29T06:43:14;99155.03;;;12.64;61.98
34177;BME280;20450;49.074;9.158;2022-12-29T06:45:57;99166.19;;;12.68;61.77
34177;BME280;20450;49.074;9.158;2022-12-29T06:48:26;99161.97;;;12.60;62.08
34177;BME280;20450;49.074;9.158;2022-12-29T06:50:52;99157.53;;;12.54;62.64
34177;BME280;20450;49.074;9.158;2022-12-29T06:53:19;99164.59;;;12.55;62.62
34177;BME280;20450;49.074;9.158;2022-12-29T06:55:46;99157.13;;;12.62;62.19
34177;BME280;20450;49.074;9.158;2022-12-29T06:58:13;99159.16;;;12.55;62.63
34177;BME280;20450;49.074;9.158;2022-12-29T07:00:41;99154.59;;;12.56;62.66
34177;BME280;20450;49.074;9.158;2022-12-29T07:03:08;99142.31;;;12.53;62.92
34177;BME280;20450;49.074;9.158;2022-12-29T07:05:36;99148.09;;;12.57;62.61
34177;BME280;20450;49.074;9.158;2022-12-29T07:08:03;99136.78;;;12.60;62.46
34177;BME280;20450;49.074;9.158;2022-12-29T07:10:30;99138.44;;;12.49;63.05
34177;BME280;20450;49.074;9.158;2022-12-29T07:12:58;99139.41;;;12.43;63.58
34177;BME280;20450;49.074;9.158;2022-12-29T07:15:24;99143.88;;;12.49;62.72
34177;BME280;20450;49.074;9.158;2022-12-29T07:17:51;99153.78;;;12.44;63.05
34177;BME280;20450;49.074;9.158;2022-12-29T07:20:18;99150.47;;;12.42;62.74
34177;BME280;20450;49.074;9.158;2022-12-29T07:22:54;99163.63;;;12.61;62.02
34177;BME280;20450;49.074;9.158;2022-12-29T07:25:21;99148.19;;;12.62;61.88
34177;BME280;20450;49.074;9.158;2022-12-29T07:27:48;99154.19;;;12.64;61.83
34177;BME280;20450;49.074;9.158;2022-12-29T07:30:15;99173.06;;;12.59;62.11
34177;BME280;20450;49.074;9.158;2022-12-29T07:32:43;99152.44;;;12.58;62.31
34177;BME280;20450;49.074;9.158;2022-12-29T07:35:10;99161.47;;;12.63;61.87
34177;BME280;20450;49.074;9.158;2022-12-29T07:37:37;99157.63;;;12.59;61.52
34177;BME280;20450;49.074;9.158;2022-12-29T07:40:06;99160.75;;;12.68;61.28
34177;BME280;20450;49.074;9.158;2022-12-29T07:42:35;99163.88;;;12.60;61.57
34177;BME280;20450;49.074;9.158;2022-12-29T07:45:03;99164.09;;;12.58;61.74
34177;BME280;20450;49.074;9.158;2022-12-29T07:47:36;99175.19;;;12.57;61.40
34177;BME280;20450;49.074;9.158;2022-12-29T07:50:04;99179.41;;;12.64;61.20
34177;BME280;20450;49.074;9.158;2022-12-29T07:52:32;99172.47;;;12.57;61.35
34177;BME280;20450;49.074;9.158;2022-12-29T07:54:58;99179.28;;;12.59;61.46
34177;BME280;20450;49.074;9.158;2022-12-29T07:57:27;99176.25;;;12.56;61.43
34177;BME280;20450;49.074;9.158;2022-12-29T07:59:58;99177.06;;;12.56;61.31
34177;BME280;20450;49.074;9.158;2022-12-29T08:02:25;99173.41;;;12.62;61.30
34177;BME280;20450;49.074;9.158;2022-12-29T08:04:53;99170.69;;;12.62;61.19
34177;BME280;20450;49.074;9.158;2022-12-29T08:07:20;99179.78;;;12.56;61.29
34177;BME280;20450;49.074;9.158;2022-12-29T08:09:47;99180.69;;;12.62;60.86
34177;BME280;20450;49.074;9.158;2022-12-29T08:12:15;99180.59;;;12.57;61.43
34177;BME280;20450;49.074;9.158;2022-12-29T08:14:43;99184.47;;;12.61;60.81
34177;BME280;20450;49.074;9.158;2022-12-29T08:17:10;99184.38;;;12.56;61.62
34177;BME280;20450;49.074;9.158;2022-12-29T08:19:38;99188.59;;;12.52;61.80
34177;BME280;20450;49.074;9.158;2022-12-29T08:22:04;99191.56;;;12.50;61.47
34177;BME280;20450;49.074;9.158;2022-12-29T08:24:31;99189.69;;;12.51;61.28
34177;BME280;20450;49.074;9.158;2022-12-29T08:26:58;99190.75;;;12.50;61.53
34177;BME280;20450;49.074;9.158;2022-12-29T08:29:34;99189.91;;;12.49;61.74
34177;BME280;20450;49.074;9.158;2022-12-29T08:32:03;99187.91;;;12.56;60.71
34177;BME280;20450;49.074;9.158;2022-12-29T08:34:30;99191.09;;;12.53;61.46
34177;BME280;20450;49.074;9.158;2022-12-29T08:36:58;99190.59;;;12.56;60.88
34177;BME280;20450;49.074;9.158;2022-12-29T08:39:32;99202.75;;;12.54;61.31
34177;BME280;20450;49.074;9.158;2022-12-29T08:41:59;99197.34;;;12.54;61.43
34177;BME280;20450;49.074;9.158;2022-12-29T08:44:26;99200.63;;;12.56;61.27
34177;BME280;20450;49.074;9.158;2022-12-29T08:46:53;99198.41;;;12.53;61.38
34177;BME280;20450;49.074;9.158;2022-12-29T08:49:21;99193.22;;;12.51;61.36
34177;BME280;20450;49.074;9.158;2022-12-29T08:51:48;99209.13;;;12.48;61.35
34177;BME280;20450;49.074;9.158;2022-12-29T08:54:15;99204.06;;;12.51;60.94
34177;BME280;20450;49.074;9.158;2022-12-29T08:56:42;99209.47;;;12.51;61.10
34177;BME280;20450;49.074;9.158;2022-12-29T08:59:09;99211.94;;;12.53;61.21
34177;BME280;20450;49.074;9.158;2022-12-29T09:01:37;99214.06;;;12.51;61.07
34177;BME280;20450;49.074;9.158;2022-12-29T09:04:04;99212.88;;;12.58;60.70
34177;BME280;20450;49.074;9.158;2022-12-29T09:06:43;99219.38;;;12.57;60.72
34177;BME280;20450;49.074;9.158;2022-12-29T09:09:11;99221.13;;;12.52;61.38
34177;BME280;20450;49.074;9.158;2022-12-29T09:11:38;99211.72;;;12.54;61.14
34177;BME280;20450;49.074;9.158;2022-12-29T09:14:06;99227.38;;;12.52;61.25
34177;BME280;20450;49.074;9.158;2022-12-29T09:16:33;99218.41;;;12.52;61.68
34177;BME280;20450;49.074;9.158;2022-12-29T09:19:00;99216.31;;;12.54;61.11
34177;BME280;20450;49.074;9.158;2022-12-29T09:21:27;99222.78;;;12.53;61.40
34177;BME280;20450;49.074;9.158;2022-12-29T09:23:56;99227.81;;;12.61;61.23
34177;BME280;20450;49.074;9.158;2022-12-29T09:26:23;99222.63;;;12.59;61.38
34177;BME280;20450;49.074;9.158;2022-12-29T09:28:50;99219.13;;;12.59;61.13
34177;BME280;20450;49.074;9.158;2022-12-29T09:31:17;99235.13;;;12.60;61.46
34177;BME280;20450;49.074;9.158;2022-12-29T09:33:44;99216.41;;;12.59;61.17
34177;BME280;20450;49.074;9.158;2022-12-29T09:36:11;99228.41;;;12.63;61.36
34177;BME280;20450;49.074;9.158;2022-12-29T09:38:38;99236.31;;;12.64;61.21
34177;BME280;20450;49.074;9.158;2022-12-29T09:41:11;99243.00;;;12.73;60.90
34177;BME280;20450;49.074;9.158;2022-12-29T09:43:52;99228.16;;;12.76;60.13
34177;BME280;20450;49.074;9.158;2022-12-29T09:46:27;99228.16;;;12.76;60.15
34177;BME280;20450;49.074;9.158;2022-12-29T09:49:04;99230.59;;;12.89;60.04
34177;BME280;20450;49.074;9.158;2022-12-29T09:51:43;99241.19;;;13.13;59.26
34177;BME280;20450;49.074;9.158;2022-12-29T09:54:24;99230.16;;;13.20;59.48
34177;BME280;20450;49.074;9.158;2022-12-29T09:57:05;99235.31;;;13.33;58.42
34177;BME280;20450;49.074;9.158;2022-12-29T09:59:43;99242.75;;;13.26;58.39
34177;BME280;20450;49.074;9.158;2022-12-29T10:02:31;99247.88;;;13.11;59.51
34177;BME280;20450;49.074;9.158;2022-12-29T10:05:20;99221.72;;;13.16;59.93
34177;BME280;20450;49.074;9.158;2022-12-29T10:08:08;99247.03;;;13.50;58.78
34177;BME280;20450;49.074;9.158;2022-12-29T10:10:50;99236.81;;;13.68;58.06
34177;BME280;20450;49.074;9.158;2022-12-29T10:13:33;99241.00;;;13.76;58.07
34177;BME280;20450;49.074;9.158;2022-12-29T10:16:13;99241.19;;;13.86;58.15
34177;BME280;20450;49.074;9.158;2022-12-29T10:18:54;99223.66;;;14.10;56.71
34177;BME280;20450;49.074;9.158;2022-12-29T10:21:40;99234.69;;;14.53;55.53
34177;BME280;20450;49.074;9.158;2022-12-29T10:24:21;99233.69;;;14.43;55.84
34177;BME280;20450;49.074;9.158;2022-12-29T10:26:51;99232.94;;;14.47;55.30
34177;BME280;20450;49.074;9.158;2022-12-29T10:29:22;99234.69;;;14.53;55.55
34177;BME280;20450;49.074;9.158;2022-12-29T10:31:57;99217.78;;;14.51;56.28
34177;BME280;20450;49.074;9.158;2022-12-29T10:34:31;99243.47;;;14.60;55.51
34177;BME280;20450;49.074;9.158;2022-12-29T10:37:05;99238.75;;;14.94;54.44
34177;BME280;20450;49.074;9.158;2022-12-29T10:39:45;99238.81;;;14.77;55.35
34177;BME280;20450;49.074;9.158;2022-12-29T10:42:21;99241.59;;;14.82;54.67
34177;BME280;20450;49.074;9.158;2022-12-29T10:44:55;99219.47;;;14.74;55.09
34177;BME280;20450;49.074;9.158;2022-12-29T10:47:27;99237.56;;;14.85;55.22
34177;BME280;20450;49.074;9.158;2022-12-29T10:49:58;99210.78;;;16.00;51.41
34177;BME280;20450;49.074;9.158;2022-12-29T10:52:28;99233.00;;;15.87;51.66
34177;BME280;20450;49.074;9.158;2022-12-29T10:55:02;99247.66;;;15.54;53.42
34177;BME280;20450;49.074;9.158;2022-12-29T10:57:33;99246.69;;;15.38;53.49
34177;BME280;20450;49.074;9.158;2022-12-29T11:00:11;99243.25;;;15.26;54.00
34177;BME280;20450;49.074;9.158;2022-12-29T11:05:50;99229.78;;;14.93;54.64
34177;BME280;20450;49.074;9.158;2022-12-29T11:08:26;99242.13;;;15.01;54.97
34177;BME280;20450;49.074;9.158;2022-12-29T11:10:59;99246.97;;;14.99;54.94
34177;BME280;20450;49.074;9.158;2022-12-29T11:13:31;99249.91;;;14.92;54.36
34177;BME280;20450;49.074;9.158;2022-12-29T11:16:07;99251.47;;;14.88;54.88
34177;BME280;20450;49.074;9.158;2022-12-29T11:18:40;99254.69;;;14.85;54.59
34177;BME280;20450;49.074;9.158;2022-12-29T11:21:26;99251.34;;;14.78;54.56
34177;BME280;20450;49.074;9.158;2022-12-29T11:24:01;99258.28;;;14.69;54.98
34177;BME280;20450;49.074;9.158;2022-12-29T11:26:30;99248.16;;;14.65;55.03
34177;BME280;20450;49.074;9.158;2022-12-29T11:29:22;99252.94;;;14.58;55.19
34177;BME280;20450;49.074;9.158;2022-12-29T11:31:55;99248.81;;;14.55;55.15
34177;BME280;20450;49.074;9.158;2022-12-29T11:34:25;99253.38;;;14.50;55.74
34177;BME280;20450;49.074;9.158;2022-12-29T11:37:00;99248.75;;;14.50;55.07
34177;BME280;20450;49.074;9.158;2022-12-29T11:39:33;99246.28;;;14.49;55.10
34177;BME280;20450;49.074;9.158;2022-12-29T11:42:05;99258.88;;;14.55;55.14
34177;BME280;20450;49.074;9.158;2022-12-29T11:44:43;99248.72;;;14.67;55.12
34177;BME280;20450;49.074;9.158;2022-12-29T11:47:23;99252.00;;;14.69;54.59
34177;BME280;20450;49.074;9.158;2022-12-29T11:49:57;99254.81;;;14.74;55.57
34177;BME280;20450;49.074;9.158;2022-12-29T11:52:33;99252.66;;;14.97;54.72
34177;BME280;20450;49.074;9.158;2022-12-29T11:55:06;99249.44;;;15.00;54.61
34177;BME280;20450;49.074;9.158;2022-12-29T11:57:43;99245.53;;;14.91;54.74
34177;BME280;20450;49.074;9.158;2022-12-29T12:00:15;99244.72;;;14.91;55.16
34177;BME280;20450;49.074;9.158;2022-12-29T12:02:48;99231.88;;;14.86;54.53
34177;BME280;20450;49.074;9.158;2022-12-29T12:05:28;99241.59;;;14.82;54.19
34177;BME280;20450;49.074;9.158;2022-12-29T12:08:10;99237.69;;;14.95;54.53
34177;BME280;20450;49.074;9.158;2022-12-29T12:10:54;99235.34;;;15.25;53.40
34177;BME280;20450;49.074;9.158;2022-12-29T12:13:37;99248.31;;;14.96;54.12
34177;BME280;20450;49.074;9.158;2022-12-29T12:16:13;99230.13;;;15.45;53.20
34177;BME280;20450;49.074;9.158;2022-12-29T12:18:49;99234.31;;;16.11;50.84
34177;BME280;20450;49.074;9.158;2022-12-29T12:21:24;99232.16;;;16.96;49.06
34177;BME280;20450;49.074;9.158;2022-12-29T12:24:11;99221.91;;;16.25;49.89
34177;BME280;20450;49.074;9.158;2022-12-29T12:26:55;99231.91;;;16.19;50.28
34177;BME280;20450;49.074;9.158;2022-12-29T12:29:31;99218.72;;;17.46;46.29
34177;BME280;20450;49.074;9.158;2022-12-29T12:32:30;99226.78;;;15.91;50.54
34177;BME280;20450;49.074;9.158;2022-12-29T12:35:11;99219.97;;;15.35;52.30
34177;BME280;20450;49.074;9.158;2022-12-29T12:37:56;99236.72;;;15.27;52.43
34177;BME280;20450;49.074;9.158;2022-12-29T12:40:53;99225.47;;;15.67;55.47
34177;BME280;20450;49.074;9.158;2022-12-29T12:43:37;99215.25;;;15.52;52.64
34177;BME280;20450;49.074;9.158;2022-12-29T12:46:27;99218.63;;;15.64;52.91
34177;BME280;20450;49.074;9.158;2022-12-29T12:49:38;99206.47;;;15.72;52.18
34177;BME280;20450;49.074;9.158;2022-12-29T12:52:41;99207.56;;;15.76;52.06
34177;BME280;20450;49.074;9.158;2022-12-29T12:55:42;99210.63;;;15.80;52.03
34177;BME280;20450;49.074;9.158;2022-12-29T12:58:35;99214.25;;;16.22;51.00
34177;BME280;20450;49.074;9.158;2022-12-29T13:01:24;99221.78;;;16.10;51.66
34177;BME280;20450;49.074;9.158;2022-12-29T13:04:26;99234.31;;;15.52;53.49
34177;BME280;20450;49.074;9.158;2022-12-29T13:07:14;99219.28;;;15.23;54.87
34177;BME280;20450;49.074;9.158;2022-12-29T13:10:05;99226.00;;;15.16;55.36
34177;BME280;20450;49.074;9.158;2022-12-29T13:12:53;99222.19;;;14.74;56.67
34177;BME280;20450;49.074;9.158;2022-12-29T13:15:40;99230.00;;;14.70;57.66
34177;BME280;20450;49.074;9.158;2022-12-29T13:18:22;99226.91;;;14.62;58.61
34177;BME280;20450;49.074;9.158;2022-12-29T13:21:02;99220.00;;;14.92;57.47
34177;BME280;20450;49.074;9.158;2022-12-29T13:23:41;99222.00;;;15.02;57.59
34177;BME280;20450;49.074;9.158;2022-12-29T13:26:22;99204.41;;;15.09;57.39
34177;BME280;20450;49.074;9.158;2022-12-29T13:28:59;99206.44;;;14.97;57.83
34177;BME280;20450;49.074;9.158;2022-12-29T13:31:40;99208.09;;;14.77;58.62
34177;BME280;20450;49.074;9.158;2022-12-29T13:34:21;99208.97;;;14.82;58.56
34177;BME280;20450;49.074;9.158;2022-12-29T13:36:59;99207.25;;;14.76;58.82
34177;BME280;20450;49.074;9.158;2022-12-29T13:39:33;99209.50;;;14.63;58.78
34177;BME280;20450;49.074;9.158;2022-12-29T13:42:04;99194.09;;;14.30;59.38